PrentiSS Brown — WDE6848 — position and weather

sailwx.info

Track history (hours):
 
Tides and Currents Weather Stations Pressure Air Temp Water Temp Dewpoint Dewpoint Depression Visibility Wind Speed Wind Dir Waves Ship Positions

PrentiSS Brown

Owner: Port City Marine Services Inc, Muskegon, MI. More information available from US FCC via Universal Licensing System and Coast Guard Vessel Documentation Center.

Last reported at 2017-Jun-28 09:05 UTC. Time now 2017-Jun-28 12:14 UTC.
Position N 45°13' W 085°39'.

; draft 7 m.

Type: Other ship. MMSI: 366922280.

Date/timePositionNaut miles runAvg speedWind from/ knotsBaromVisibWave heightAir tempDewpointWater temp
2017-Jun-28 09:05N 45°13' W 085°39'0 5.4
2017-Jun-28 09:00N 45°13' W 085°38'3 5.3
2017-Jun-28 08:30N 45°14' W 085°35'3 5.4
2017-Jun-28 08:00N 45°16' W 085°32'3 5.7
2017-Jun-28 07:30N 45°17' W 085°28'3 5.6
2017-Jun-28 07:00N 45°18' W 085°25'3 5.7
2017-Jun-28 06:30N 45°20' W 085°21'3 5.0
2017-Jun-28 06:00N 45°20' W 085°18'1 1.2
2017-Jun-28 05:30N 45°19' W 085°18'0 0.0
2017-Jun-28 05:00N 45°19' W 085°18'0 0.0
2017-Jun-28 04:30N 45°19' W 085°18'0 0.0
2017-Jun-28 04:00N 45°19' W 085°18'0 0.0
2017-Jun-28 03:30N 45°19' W 085°18'0 0.0
2017-Jun-28 03:00N 45°19' W 085°18'0 0.0
2017-Jun-28 02:30N 45°19' W 085°18'0 0.0
2017-Jun-28 02:00N 45°19' W 085°18'0 0.0
2017-Jun-28 01:30N 45°19' W 085°18'0 0.0
2017-Jun-28 01:00N 45°19' W 085°18'0 0.0
2017-Jun-28 00:30N 45°19' W 085°18'0 0.1
2017-Jun-28 00:00N 45°19' W 085°18'0 0.0
2017-Jun-27 23:30N 45°19' W 085°18'0 0.0
2017-Jun-27 23:00N 45°19' W 085°18'0 0.0
2017-Jun-27 22:30N 45°19' W 085°18'0 0.0
2017-Jun-27 22:00N 45°19' W 085°18'0 0.0
2017-Jun-27 21:30N 45°19' W 085°18'0 0.0
2017-Jun-27 21:00N 45°19' W 085°18'0 0.0
2017-Jun-27 20:30N 45°19' W 085°18'0 0.0
2017-Jun-27 20:00N 45°19' W 085°18'0 0.0
2017-Jun-27 19:30N 45°19' W 085°18'0 0.0
2017-Jun-27 19:00N 45°19' W 085°18'0 0.0
2017-Jun-27 18:30N 45°19' W 085°18'0 0.0
2017-Jun-27 18:00N 45°19' W 085°18'1 2.1
2017-Jun-27 17:30N 45°20' W 085°18'5 9.1
2017-Jun-27 17:00N 45°18' W 085°24'5 9.4
2017-Jun-27 16:30N 45°16' W 085°30'5 9.6
2017-Jun-27 16:00N 45°14' W 085°36'5 9.1
2017-Jun-27 15:30N 45°11' W 085°41'2 0.0
2017-Jun-25 11:52N 45°13' W 085°39'3 7.5
2017-Jun-25 11:30N 45°14' W 085°36'4 7.5
2017-Jun-25 11:00N 45°16' W 085°31'4 7.6
2017-Jun-25 10:30N 45°18' W 085°27'4 7.6
2017-Jun-25 10:00N 45°19' W 085°22'3 6.1
2017-Jun-25 09:30N 45°19' W 085°17'0 1.0
2017-Jun-25 09:00N 45°19' W 085°18'0 0.0
2017-Jun-25 08:30N 45°19' W 085°18'0 0.0
2017-Jun-25 08:00N 45°19' W 085°18'0 0.0
2017-Jun-25 07:30N 45°19' W 085°18'0 0.0
2017-Jun-25 07:00N 45°19' W 085°18'0 0.0
2017-Jun-25 06:30N 45°19' W 085°18'0 0.1
2017-Jun-25 06:00N 45°19' W 085°18'0 0.0
2017-Jun-25 05:30N 45°19' W 085°18'0 0.0
2017-Jun-25 05:00N 45°19' W 085°18'0 0.0
2017-Jun-25 04:30N 45°19' W 085°18'0 0.0
2017-Jun-25 04:00N 45°19' W 085°18'1 1.9
2017-Jun-25 03:30N 45°20' W 085°17'4 8.7
2017-Jun-25 03:00N 45°19' W 085°23'5 9.5
2017-Jun-25 02:30N 45°16' W 085°29'5 9.5
2017-Jun-25 02:00N 45°14' W 085°35'  
2017-Jun-22 00:41N 45°00' W 085°58'13 7.8
2017-Jun-21 22:59N 45°09' W 085°44'4 7.6
2017-Jun-21 22:30N 45°12' W 085°40'4 7.4
2017-Jun-21 22:01N 45°14' W 085°36'4 7.5
2017-Jun-21 21:31N 45°16' W 085°31'4 7.4
2017-Jun-21 21:01N 45°17' W 085°27'4 7.4
2017-Jun-21 20:30N 45°19' W 085°22'3 6.4
2017-Jun-21 20:01N 45°20' W 085°18'1 1.0
2017-Jun-21 19:31N 45°19' W 085°18'0 0.0
2017-Jun-21 19:01N 45°19' W 085°18'0 0.0
2017-Jun-21 18:31N 45°19' W 085°18'0 0.0
2017-Jun-21 18:01N 45°19' W 085°18'0 0.0
2017-Jun-21 17:31N 45°19' W 085°18'0 0.0
2017-Jun-21 17:01N 45°19' W 085°18'0 0.0
2017-Jun-21 16:30N 45°19' W 085°18'0 0.0
2017-Jun-21 16:01N 45°19' W 085°18'0 0.0
2017-Jun-21 15:31N 45°19' W 085°18'0 0.0
2017-Jun-21 15:01N 45°19' W 085°18'0 0.0
2017-Jun-21 14:31N 45°19' W 085°18'0 0.0
2017-Jun-21 13:30N 45°19' W 085°18'0 0.0
2017-Jun-21 13:01N 45°19' W 085°18'0 0.0
2017-Jun-21 12:31N 45°19' W 085°18'0 0.0
2017-Jun-21 12:01N 45°19' W 085°18'0 0.0
2017-Jun-21 11:31N 45°19' W 085°18'0 0.0
2017-Jun-21 11:00N 45°19' W 085°18'0 0.0
2017-Jun-21 10:31N 45°19' W 085°18'0 0.0
2017-Jun-21 10:01N 45°19' W 085°18'0 0.0
2017-Jun-21 09:31N 45°19' W 085°18'0 0.0
2017-Jun-21 09:01N 45°19' W 085°18'0 0.0
2017-Jun-21 08:31N 45°19' W 085°18'0 0.0
2017-Jun-21 08:01N 45°19' W 085°18'0 0.0
2017-Jun-21 07:31N 45°19' W 085°18'0 0.0
2017-Jun-21 07:01N 45°19' W 085°18'0 0.0
2017-Jun-21 06:31N 45°19' W 085°18'0 0.0
2017-Jun-21 06:01N 45°19' W 085°18'0 0.0
2017-Jun-21 05:31N 45°19' W 085°18'0 0.0
2017-Jun-21 05:00N 45°19' W 085°18'0 0.0
2017-Jun-21 04:31N 45°19' W 085°18'0 0.0
2017-Jun-21 04:01N 45°19' W 085°18'0 0.0
2017-Jun-21 03:30N 45°19' W 085°18'0 0.0
2017-Jun-21 03:01N 45°19' W 085°18'0 0.0
2017-Jun-21 02:30N 45°19' W 085°18'0 0.0
2017-Jun-21 02:01N 45°19' W 085°18'0 0.0
2017-Jun-21 01:30N 45°19' W 085°18'0 0.0
2017-Jun-21 01:00N 45°19' W 085°18'0 0.0
2017-Jun-21 00:31N 45°19' W 085°18'0 0.0
2017-Jun-21 00:01N 45°19' W 085°18'0 0.0
2017-Jun-20 23:31N 45°19' W 085°18'0 0.0
2017-Jun-20 23:01N 45°19' W 085°18'0 0.0
2017-Jun-20 22:30N 45°19' W 085°18'0 0.0
2017-Jun-20 22:00N 45°19' W 085°18'0 0.0
2017-Jun-20 21:31N 45°19' W 085°18'0 0.0
2017-Jun-20 21:01N 45°19' W 085°18'0 0.0
2017-Jun-20 20:31N 45°19' W 085°18'0 0.0
2017-Jun-20 20:00N 45°19' W 085°18'0 0.0
2017-Jun-20 19:30N 45°19' W 085°18'0 0.0
2017-Jun-20 19:00N 45°19' W 085°18'1 2.3
2017-Jun-20 18:31N 45°20' W 085°18'5 9.5
2017-Jun-20 18:00N 45°18' W 085°24'5 9.5
2017-Jun-20 17:30N 45°16' W 085°30'5 9.7
2017-Jun-20 17:00N 45°14' W 085°36'  
2017-Jun-18 12:35N 45°13' W 085°39'1 7.3
2017-Jun-18 12:30N 45°13' W 085°38'4 7.7
2017-Jun-18 12:00N 45°15' W 085°33'4 7.7
2017-Jun-18 11:30N 45°17' W 085°29'4 7.9
2017-Jun-18 11:00N 45°19' W 085°24'4 7.9
2017-Jun-18 10:30N 45°20' W 085°18'1 2.4
2017-Jun-18 10:00N 45°19' W 085°18'0 0.0
2017-Jun-18 09:30N 45°19' W 085°18'  
Track history (hours):
 
Tides and Currents Weather Stations Pressure Air Temp Water Temp Dewpoint Dewpoint Depression Visibility Wind Speed Wind Dir Waves Ship Positions

PrentiSS Brown

Owner: Port City Marine Services Inc, Muskegon, MI. More information available from US FCC via Universal Licensing System and Coast Guard Vessel Documentation Center.

Last reported at 2017-Jun-28 09:05 UTC. Time now 2017-Jun-28 12:14 UTC.
Position N 45°13' W 085°39'.

; draft 7 m.

Type: Other ship. MMSI: 366922280.

Date/timePositionNaut miles runAvg speedWind from/ knotsBaromVisibWave heightAir tempDewpointWater temp
2017-Jun-28 09:05N 45°13' W 085°39'0 5.4
2017-Jun-28 09:00N 45°13' W 085°38'3 5.3
2017-Jun-28 08:30N 45°14' W 085°35'3 5.4
2017-Jun-28 08:00N 45°16' W 085°32'3 5.7
2017-Jun-28 07:30N 45°17' W 085°28'3 5.6
2017-Jun-28 07:00N 45°18' W 085°25'3 5.7
2017-Jun-28 06:30N 45°20' W 085°21'3 5.0
2017-Jun-28 06:00N 45°20' W 085°18'1 1.2
2017-Jun-28 05:30N 45°19' W 085°18'0 0.0
2017-Jun-28 05:00N 45°19' W 085°18'0 0.0
2017-Jun-28 04:30N 45°19' W 085°18'0 0.0
2017-Jun-28 04:00N 45°19' W 085°18'0 0.0
2017-Jun-28 03:30N 45°19' W 085°18'0 0.0
2017-Jun-28 03:00N 45°19' W 085°18'0 0.0
2017-Jun-28 02:30N 45°19' W 085°18'0 0.0
2017-Jun-28 02:00N 45°19' W 085°18'0 0.0
2017-Jun-28 01:30N 45°19' W 085°18'0 0.0
2017-Jun-28 01:00N 45°19' W 085°18'0 0.0
2017-Jun-28 00:30N 45°19' W 085°18'0 0.1
2017-Jun-28 00:00N 45°19' W 085°18'0 0.0
2017-Jun-27 23:30N 45°19' W 085°18'0 0.0
2017-Jun-27 23:00N 45°19' W 085°18'0 0.0
2017-Jun-27 22:30N 45°19' W 085°18'0 0.0
2017-Jun-27 22:00N 45°19' W 085°18'0 0.0
2017-Jun-27 21:30N 45°19' W 085°18'0 0.0
2017-Jun-27 21:00N 45°19' W 085°18'0 0.0
2017-Jun-27 20:30N 45°19' W 085°18'0 0.0
2017-Jun-27 20:00N 45°19' W 085°18'0 0.0
2017-Jun-27 19:30N 45°19' W 085°18'0 0.0
2017-Jun-27 19:00N 45°19' W 085°18'0 0.0
2017-Jun-27 18:30N 45°19' W 085°18'0 0.0
2017-Jun-27 18:00N 45°19' W 085°18'1 2.1
2017-Jun-27 17:30N 45°20' W 085°18'5 9.1
2017-Jun-27 17:00N 45°18' W 085°24'5 9.4
2017-Jun-27 16:30N 45°16' W 085°30'5 9.6
2017-Jun-27 16:00N 45°14' W 085°36'5 9.1
2017-Jun-27 15:30N 45°11' W 085°41'2 0.0
2017-Jun-25 11:52N 45°13' W 085°39'3 7.5
2017-Jun-25 11:30N 45°14' W 085°36'4 7.5
2017-Jun-25 11:00N 45°16' W 085°31'4 7.6
2017-Jun-25 10:30N 45°18' W 085°27'4 7.6
2017-Jun-25 10:00N 45°19' W 085°22'3 6.1
2017-Jun-25 09:30N 45°19' W 085°17'0 1.0
2017-Jun-25 09:00N 45°19' W 085°18'0 0.0
2017-Jun-25 08:30N 45°19' W 085°18'0 0.0
2017-Jun-25 08:00N 45°19' W 085°18'0 0.0
2017-Jun-25 07:30N 45°19' W 085°18'0 0.0
2017-Jun-25 07:00N 45°19' W 085°18'0 0.0
2017-Jun-25 06:30N 45°19' W 085°18'0 0.1
2017-Jun-25 06:00N 45°19' W 085°18'0 0.0
2017-Jun-25 05:30N 45°19' W 085°18'0 0.0
2017-Jun-25 05:00N 45°19' W 085°18'0 0.0
2017-Jun-25 04:30N 45°19' W 085°18'0 0.0
2017-Jun-25 04:00N 45°19' W 085°18'1 1.9
2017-Jun-25 03:30N 45°20' W 085°17'4 8.7
2017-Jun-25 03:00N 45°19' W 085°23'5 9.5
2017-Jun-25 02:30N 45°16' W 085°29'5 9.5
2017-Jun-25 02:00N 45°14' W 085°35'  
2017-Jun-22 00:41N 45°00' W 085°58'13 7.8
2017-Jun-21 22:59N 45°09' W 085°44'4 7.6
2017-Jun-21 22:30N 45°12' W 085°40'4 7.4
2017-Jun-21 22:01N 45°14' W 085°36'4 7.5
2017-Jun-21 21:31N 45°16' W 085°31'4 7.4
2017-Jun-21 21:01N 45°17' W 085°27'4 7.4
2017-Jun-21 20:30N 45°19' W 085°22'3 6.4
2017-Jun-21 20:01N 45°20' W 085°18'1 1.0
2017-Jun-21 19:31N 45°19' W 085°18'0 0.0
2017-Jun-21 19:01N 45°19' W 085°18'0 0.0
2017-Jun-21 18:31N 45°19' W 085°18'0 0.0
2017-Jun-21 18:01N 45°19' W 085°18'0 0.0
2017-Jun-21 17:31N 45°19' W 085°18'0 0.0
2017-Jun-21 17:01N 45°19' W 085°18'0 0.0
2017-Jun-21 16:30N 45°19' W 085°18'0 0.0
2017-Jun-21 16:01N 45°19' W 085°18'0 0.0
2017-Jun-21 15:31N 45°19' W 085°18'0 0.0
2017-Jun-21 15:01N 45°19' W 085°18'0 0.0
2017-Jun-21 14:31N 45°19' W 085°18'0 0.0
2017-Jun-21 13:30N 45°19' W 085°18'0 0.0
2017-Jun-21 13:01N 45°19' W 085°18'0 0.0
2017-Jun-21 12:31N 45°19' W 085°18'0 0.0
2017-Jun-21 12:01N 45°19' W 085°18'0 0.0
2017-Jun-21 11:31N 45°19' W 085°18'0 0.0
2017-Jun-21 11:00N 45°19' W 085°18'0 0.0
2017-Jun-21 10:31N 45°19' W 085°18'0 0.0
2017-Jun-21 10:01N 45°19' W 085°18'0 0.0
2017-Jun-21 09:31N 45°19' W 085°18'0 0.0
2017-Jun-21 09:01N 45°19' W 085°18'0 0.0
2017-Jun-21 08:31N 45°19' W 085°18'0 0.0
2017-Jun-21 08:01N 45°19' W 085°18'0 0.0
2017-Jun-21 07:31N 45°19' W 085°18'0 0.0
2017-Jun-21 07:01N 45°19' W 085°18'0 0.0
2017-Jun-21 06:31N 45°19' W 085°18'0 0.0
2017-Jun-21 06:01N 45°19' W 085°18'0 0.0
2017-Jun-21 05:31N 45°19' W 085°18'0 0.0
2017-Jun-21 05:00N 45°19' W 085°18'0 0.0
2017-Jun-21 04:31N 45°19' W 085°18'0 0.0
2017-Jun-21 04:01N 45°19' W 085°18'0 0.0
2017-Jun-21 03:30N 45°19' W 085°18'0 0.0
2017-Jun-21 03:01N 45°19' W 085°18'0 0.0
2017-Jun-21 02:30N 45°19' W 085°18'0 0.0
2017-Jun-21 02:01N 45°19' W 085°18'0 0.0
2017-Jun-21 01:30N 45°19' W 085°18'0 0.0
2017-Jun-21 01:00N 45°19' W 085°18'0 0.0
2017-Jun-21 00:31N 45°19' W 085°18'0 0.0
2017-Jun-21 00:01N 45°19' W 085°18'0 0.0
2017-Jun-20 23:31N 45°19' W 085°18'0 0.0
2017-Jun-20 23:01N 45°19' W 085°18'0 0.0
2017-Jun-20 22:30N 45°19' W 085°18'0 0.0
2017-Jun-20 22:00N 45°19' W 085°18'0 0.0
2017-Jun-20 21:31N 45°19' W 085°18'0 0.0
2017-Jun-20 21:01N 45°19' W 085°18'0 0.0
2017-Jun-20 20:31N 45°19' W 085°18'0 0.0
2017-Jun-20 20:00N 45°19' W 085°18'0 0.0
2017-Jun-20 19:30N 45°19' W 085°18'0 0.0
2017-Jun-20 19:00N 45°19' W 085°18'1 2.3
2017-Jun-20 18:31N 45°20' W 085°18'5 9.5
2017-Jun-20 18:00N 45°18' W 085°24'5 9.5
2017-Jun-20 17:30N 45°16' W 085°30'5 9.7
2017-Jun-20 17:00N 45°14' W 085°36'  
2017-Jun-18 12:35N 45°13' W 085°39'1 7.3
2017-Jun-18 12:30N 45°13' W 085°38'4 7.7
2017-Jun-18 12:00N 45°15' W 085°33'4 7.7
2017-Jun-18 11:30N 45°17' W 085°29'4 7.9
2017-Jun-18 11:00N 45°19' W 085°24'4 7.9
2017-Jun-18 10:30N 45°20' W 085°18'1 2.4
2017-Jun-18 10:00N 45°19' W 085°18'0 0.0
2017-Jun-18 09:30N 45°19' W 085°18'  

Dump ship's entire track history